Pagrindinis puslapis
METAR-TAF:

METAR-TAF

Oro uostai :

Bandžarmasinas, Indonezija

platuma: 03-26-32S, ilguma: 114-45-45E, Aukštis: 20 m

Dabartinis oras

Ataskaita buvo paskelbta 21 minutes, ne 01:30 UTC
Vėjas 2 kt iš Vakarų/Šiaurės Vakarų
Temperatūra 26°C
Drėgmė 94%
Slėgis 1010 hPa
Matomumas 10 km arba daugiau
Išsisklaidę debesys ne aukštis 1200 ft

METAR: WAOO 290130Z 29002KT 9999 SCT012 26/25 Q1010

Laikas: 08:51 (01:51 UTC)

Prognozė

Ataskaita buvo paskelbta 2 valandos ir 51 minutes, ne 23:00 UTC
Prognozė galioja nuo 29 metu 00 UTC su 29 metu 24 UTC
Vėjas 6 kt iš Šiaurės Vakarų
Matomumas: 9000 m
Išsisklaidę debesys ne aukštis 1800 ft
Laikinai
nuo 29 metu 03 UTC su 29 metu 07 UTC
Matomumas: 3000 m
Mažai debesys ne aukštis 1500 ft, Liūtiniai kamuoliniai debesys.
perkūnija, lietus

TAF: WAOO 282300Z 2900/2924 31006KT 9000 SCT018 TEMPO 2903/2907 3000 TSRA FEW015CB

Orai ataskaitas ir orų prognozės (METAR, TAF).

turimą stotys yra geltonos ir raudonos taškus žemėlapyje.

Perkelti pele per norėdami pamatyti stoties vardą.

Tada spustelėkite, norėdami matyti oro stebėjimo ir prognozės.

Norėdami pakeisti žemėlapį: spustelėkite ant žalios mygtukų su juodo kryžiaus žemyn,; žalią mygtuką su brūkšneliu, jei norite nutolinti; arba žalių rodyklių gretimoms žemėlapius.


METAR-TAF: